Osage, OK (74054)

01:21 PM CST del 16 Gennaio 2017 (GMT -0600)
Cleveland | | Change Station

Alt. 860 ft 36.32 °N, 96.47 °W | Updated 6 minutes ago

Coperto
Coperto
46.2 °F
Sembra 41 °F
N
11.4
Vento Variabile Vento da SO

Oggi
Massima -- | Minima -- °F
--% Possibilità di precip.
Ieri
Massima -- | Minima -- °F
Precip. -- in
Pressione 29.91 in
Visibilità 10.0 miglia
Nuvole Coperto 1700 ft
Raffreddamento del vento 41 °F
Punto di rugiada 40 °F
Umidità 78%
Piovosità 0.41 in
Spessore del manto nevoso Non disponibile.
7:35 AM 5:35 PM
Gobba a levante, 79% visible
METAR KTUL 161853Z 24010KT 10SM OVC017 11/07 A2991 RMK AO2 SLP128 T01060072
Pressione 29.91 in
Visibilità 10.0 miglia
Nuvole Coperto 1700 ft
Raffreddamento del vento 41 °F
Punto di rugiada 40 °F
Umidità 78%
Piovosità 0.41 in
Spessore del manto nevoso Non disponibile.
7:35 AM 5:35 PM
Gobba a levante, 79% visible
METAR KTUL 161853Z 24010KT 10SM OVC017 11/07 A2991 RMK AO2 SLP128 T01060072

Get Your Daily Forecast Email!

Thanks for signing up!

Be on the lookout for a verification email in your inbox.

You'll start receiving the daily forecast at 8 AM.

×

10-Day Weather Forecast

Almanac

Astronomia

Jan. 16, 2017 Alba Tramonto
Ora attuale
Crepuscolo civile
Crepuscolo nautico
Crepuscolo astronomico
Luna
Estensione della luce visibile
Lunghezza del giorno
Tomorrow will be .
, % of the Moon is Illuminated

Gli estremi di oggi

State Highs State Lows

Community

WunderPhotos

Upload Photos

1,962,540 foto caricate!

WunderBlog® & News

Nearby

Qualità dell'aria

  Qualità dell'aria Indice AQ Inquinante
Not available.

Profondità neve

Stazione Profondità Altitudine

Attività sismica

Città  Distanza Mag. Data & Ora
Minimo Magnitudo Mostrato è 2.5.

Temperature delle acque costiere

Località Temperatura

Stations

Stazioni meteo nelle vicinanze

Ubicazione della stazione Temp. Raffreddamento del vento Punto di rugiada Umidità Vento Precip. Alt. Aggiornato Tipo
                   

Watches & Warnings

There are currently no watches in effect.